Map

Track Data

SID SEASON NUMBER BASIN SUBBASIN NAME ISO_TIME NATURE LAT LON WMO_WIND WMO_PRES WMO_AGENCY TRACK_TYPE DIST2LAND LANDFALL IFLAG USA_AGENCY USA_ATCF_ID USA_LAT USA_LON USA_RECORD USA_STATUS USA_WIND USA_PRES USA_SSHS USA_R34_NE USA_R34_SE USA_R34_SW USA_R34_NW USA_R50_NE USA_R50_SE USA_R50_SW USA_R50_NW USA_R64_NE USA_R64_SE USA_R64_SW USA_R64_NW USA_POCI USA_ROCI USA_RMW USA_EYE TOKYO_LAT TOKYO_LON TOKYO_GRADE TOKYO_WIND TOKYO_PRES TOKYO_R50_DIR TOKYO_R50_LONG TOKYO_R50_SHORT TOKYO_R30_DIR TOKYO_R30_LONG TOKYO_R30_SHORT TOKYO_LAND CMA_LAT CMA_LON CMA_CAT CMA_WIND CMA_PRES HKO_LAT HKO_LON HKO_CAT HKO_WIND HKO_PRES NEWDELHI_LAT NEWDELHI_LON NEWDELHI_GRADE NEWDELHI_WIND NEWDELHI_PRES NEWDELHI_CI NEWDELHI_DP NEWDELHI_POCI REUNION_LAT REUNION_LON REUNION_TYPE REUNION_WIND REUNION_PRES REUNION_TNUM REUNION_CI REUNION_RMW REUNION_R34_NE REUNION_R34_SE REUNION_R34_SW REUNION_R34_NW REUNION_R50_NE REUNION_R50_SE REUNION_R50_SW REUNION_R50_NW REUNION_R64_NE REUNION_R64_SE REUNION_R64_SW REUNION_R64_NW BOM_LAT BOM_LON BOM_TYPE BOM_WIND BOM_PRES BOM_TNUM BOM_CI BOM_RMW BOM_R34_NE BOM_R34_SE BOM_R34_SW BOM_R34_NW BOM_R50_NE BOM_R50_SE BOM_R50_SW BOM_R50_NW BOM_R64_NE BOM_R64_SE BOM_R64_SW BOM_R64_NW BOM_ROCI BOM_POCI BOM_EYE BOM_POS_METHOD BOM_PRES_METHOD NADI_LAT NADI_LON NADI_CAT NADI_WIND NADI_PRES WELLINGTON_LAT WELLINGTON_LON WELLINGTON_WIND WELLINGTON_PRES DS824_LAT DS824_LON DS824_STAGE DS824_WIND DS824_PRES TD9636_LAT TD9636_LON TD9636_STAGE TD9636_WIND TD9636_PRES TD9635_LAT TD9635_LON TD9635_WIND TD9635_PRES TD9635_ROCI NEUMANN_LAT NEUMANN_LON NEUMANN_CLASS NEUMANN_WIND NEUMANN_PRES MLC_LAT MLC_LON MLC_CLASS MLC_WIND MLC_PRES USA_GUST BOM_GUST BOM_GUST_PER REUNION_GUST REUNION_GUST_PER USA_SEAHGT USA_SEARAD_NE USA_SEARAD_SE USA_SEARAD_SW USA_SEARAD_NW STORM_SPEED STORM_DIR
1937266N13130 1937 48 WP MM NOT_NAMED 1937-09-22 22:00:00 NR 13.3000 129.900 main 493 493 __________O___ -1 13.3000 129.900 7 17 6
1937266N13130 1937 48 WP MM NOT_NAMED 1937-09-23 00:00:00 NR 13.8693 129.959 main 523 523 __________P___ -1 13.8693 129.959 7 17 7
1937266N13130 1937 48 WP MM NOT_NAMED 1937-09-23 03:00:00 NR 14.7038 130.075 main 571 571 __________P___ -1 14.7038 130.075 7 17 10
1937266N13130 1937 48 WP MM NOT_NAMED 1937-09-23 06:00:00 NR 15.4874 130.263 main 636 636 __________P___ -1 15.4874 130.263 7 16 18
1937266N13130 1937 48 WP MM NOT_NAMED 1937-09-23 09:00:00 NR 16.1894 130.566 main 709 709 __________P___ -1 16.1894 130.566 7 15 25
1937266N13130 1937 48 WP MM NOT_NAMED 1937-09-23 10:00:00 NR 16.4000 130.700 main 731 731 __________O___ -1 16.4000 130.700 7 15 36
1937266N13130 1937 48 WP MM NOT_NAMED 1937-09-23 12:00:00 NR 16.7821 131.023 main 778 788 __________P___ -1 16.7821 131.023 7 15 45
1937266N13130 1937 48 WP MM NOT_NAMED 1937-09-23 15:00:00 NR 17.2734 131.628 main 860 869 __________P___ -1 17.2734 131.628 7 16 54
1937266N13130 1937 48 WP MM NOT_NAMED 1937-09-23 18:00:00 NR 17.6940 132.342 main 946 955 __________P___ -1 17.6940 132.342 7 16 61
1937266N13130 1937 48 WP MM NOT_NAMED 1937-09-23 21:00:00 NR 18.0758 133.129 main 1041 1051 __________P___ -1 18.0758 133.129 7 17 63
1937266N13130 1937 48 WP MM NOT_NAMED 1937-09-23 22:00:00 NR 18.2000 133.400 main 1075 1075 __________O___ -1 18.2000 133.400 7 17 63
1937266N13130 1937 48 WP MM NOT_NAMED 1937-09-24 00:00:00 NR 18.4675 133.943 main 1137 1147 __________P___ -1 18.4675 133.943 7 18 64
1937266N13130 1937 48 WP MM NOT_NAMED 1937-09-24 03:00:00 NR 18.8498 134.801 main 1237 1242 __________P___ -1 18.8498 134.801 7 18 65
1937266N13130 1937 48 WP MM NOT_NAMED 1937-09-24 06:00:00 NR 19.2171 135.677 main 1342 1342 __________P___ -1 19.2171 135.677 7 18 66
1937266N13130 1937 48 WP MM NOT_NAMED 1937-09-24 09:00:00 NR 19.5789 136.528 main 1399 1398 __________P___ -1 19.5789 136.528 7 17 65
1937266N13130 1937 48 WP MM NOT_NAMED 1937-09-24 10:00:00 NR 19.7000 136.800 main 1402 1395 __________O___ -1 19.7000 136.800 7 16 64
1937266N13130 1937 48 WP MM NOT_NAMED 1937-09-24 12:00:00 NR 19.9277 137.300 main 1404 1399 __________P___ -1 19.9277 137.300 7 15 63
1937266N13130 1937 48 WP MM NOT_NAMED 1937-09-24 15:00:00 NR 20.2697 138.011 main 1400 1401 __________P___ -1 20.2697 138.011 7 15 62
1937266N13130 1937 48 WP MM NOT_NAMED 1937-09-24 18:00:00 NR 20.6347 138.695 main 1408 1398 __________P___ -1 20.6347 138.695 7 15 59
1937266N13130 1937 48 WP MM NOT_NAMED 1937-09-24 21:00:00 NR 21.0475 139.372 main 1407 1398 __________P___ -1 21.0475 139.372 7 15 56
1937266N13130 1937 48 WP MM NOT_NAMED 1937-09-24 22:00:00 NR 21.2000 139.600 main 1400 1391 __________O___ -1 21.2000 139.600 7 17 54
1937266N13130 1937 48 WP MM NOT_NAMED 1937-09-25 00:00:00 NR 21.5296 140.088 main 1394 1353 __________P___ -1 21.5296 140.088 7 17 53
1937266N13130 1937 48 WP MM NOT_NAMED 1937-09-25 03:00:00 NR 22.0746 140.827 main 1353 1322 __________P___ -1 22.0746 140.827 7 18 50
1937266N13130 1937 48 WP MM NOT_NAMED 1937-09-25 06:00:00 NR 22.6660 141.560 main 1322 1288 __________P___ -1 22.6660 141.560 7 18 48
1937266N13130 1937 48 WP MM NOT_NAMED 1937-09-25 09:00:00 NR 23.2884 142.271 main 1293 1283 __________P___ -1 23.2884 142.271 7 18 46
1937266N13130 1937 48 WP MM NOT_NAMED 1937-09-25 10:00:00 NR 23.5000 142.500 main 1283 1258 __________O___ -1 23.5000 142.500 7 18 44
1937266N13130 1937 48 WP MM NOT_NAMED 1937-09-25 12:00:00 NR 23.9268 142.944 main 1258 1203 __________P___ -1 23.9268 142.944 7 18 43
1937266N13130 1937 48 WP MM NOT_NAMED 1937-09-25 15:00:00 NR 24.5739 143.582 main 1203 1154 __________P___ -1 24.5739 143.582 7 17 41
1937266N13130 1937 48 WP MM NOT_NAMED 1937-09-25 18:00:00 NR 25.2267 144.196 main 1158 1108 __________P___ -1 25.2267 144.196 7 17 40
1937266N13130 1937 48 WP MM NOT_NAMED 1937-09-25 21:00:00 NR 25.8818 144.799 main 1108 1095 __________P___ -1 25.8818 144.799 7 17 40
1937266N13130 1937 48 WP MM NOT_NAMED 1937-09-25 22:00:00 NR 26.1000 145.000 main 1095 __________O___ -1 26.1000 145.000 7 17 39

Digital Typhoon Data and Search

About IBTrACS Database

This database is a web-friendly format of International Best Track Archive for Climate Stewardship (IBTrACS), a global best track data archive curated by NOAA dating back to 1842.

Updated: 2021-10-27